sensor_id;sensor_type;location;lat;lon;timestamp;P1;durP1;ratioP1;P2;durP2;ratioP2
5456;SDS011;2751;49.802;9.944;2023-02-28T00:01:04;2.67;;;2.47;;
5456;SDS011;2751;49.802;9.944;2023-02-28T00:03:33;4.10;;;3.70;;
5456;SDS011;2751;49.802;9.944;2023-02-28T00:06:00;2.73;;;2.53;;
5456;SDS011;2751;49.802;9.944;2023-02-28T00:08:27;3.37;;;2.80;;
5456;SDS011;2751;49.802;9.944;2023-02-28T00:10:54;3.30;;;2.53;;
5456;SDS011;2751;49.802;9.944;2023-02-28T00:13:21;2.43;;;2.10;;
5456;SDS011;2751;49.802;9.944;2023-02-28T00:15:57;3.40;;;2.90;;
5456;SDS011;2751;49.802;9.944;2023-02-28T00:18:25;2.90;;;2.70;;
5456;SDS011;2751;49.802;9.944;2023-02-28T00:20:53;3.70;;;2.93;;
5456;SDS011;2751;49.802;9.944;2023-02-28T00:23:20;3.43;;;3.20;;
5456;SDS011;2751;49.802;9.944;2023-02-28T00:25:47;2.40;;;2.23;;
5456;SDS011;2751;49.802;9.944;2023-02-28T00:28:14;3.10;;;2.90;;
5456;SDS011;2751;49.802;9.944;2023-02-28T00:30:41;2.23;;;2.10;;
5456;SDS011;2751;49.802;9.944;2023-02-28T00:33:08;4.03;;;3.63;;
5456;SDS011;2751;49.802;9.944;2023-02-28T00:35:34;3.43;;;3.10;;
5456;SDS011;2751;49.802;9.944;2023-02-28T00:38:03;3.20;;;2.90;;
5456;SDS011;2751;49.802;9.944;2023-02-28T00:40:30;2.90;;;2.80;;
5456;SDS011;2751;49.802;9.944;2023-02-28T00:42:56;2.70;;;2.00;;
5456;SDS011;2751;49.802;9.944;2023-02-28T00:45:23;2.97;;;2.73;;
5456;SDS011;2751;49.802;9.944;2023-02-28T00:47:50;4.93;;;3.00;;
5456;SDS011;2751;49.802;9.944;2023-02-28T00:50:17;2.93;;;2.73;;
5456;SDS011;2751;49.802;9.944;2023-02-28T00:52:45;3.00;;;2.70;;
5456;SDS011;2751;49.802;9.944;2023-02-28T00:55:13;3.07;;;2.43;;
5456;SDS011;2751;49.802;9.944;2023-02-28T00:57:40;3.13;;;2.83;;
5456;SDS011;2751;49.802;9.944;2023-02-28T01:00:08;5.00;;;1.60;;
5456;SDS011;2751;49.802;9.944;2023-02-28T01:02:36;2.83;;;2.63;;
5456;SDS011;2751;49.802;9.944;2023-02-28T01:05:03;2.70;;;2.50;;
5456;SDS011;2751;49.802;9.944;2023-02-28T01:07:30;3.77;;;3.07;;
5456;SDS011;2751;49.802;9.944;2023-02-28T01:09:57;3.20;;;2.60;;
5456;SDS011;2751;49.802;9.944;2023-02-28T01:12:25;2.70;;;2.50;;
5456;SDS011;2751;49.802;9.944;2023-02-28T01:14:52;3.27;;;3.07;;
5456;SDS011;2751;49.802;9.944;2023-02-28T01:17:19;2.30;;;2.20;;
5456;SDS011;2751;49.802;9.944;2023-02-28T01:19:45;3.13;;;2.93;;
5456;SDS011;2751;49.802;9.944;2023-02-28T01:22:12;3.27;;;2.97;;
5456;SDS011;2751;49.802;9.944;2023-02-28T01:24:39;3.80;;;3.23;;
5456;SDS011;2751;49.802;9.944;2023-02-28T01:27:06;3.70;;;3.23;;
5456;SDS011;2751;49.802;9.944;2023-02-28T01:29:34;2.83;;;2.63;;
5456;SDS011;2751;49.802;9.944;2023-02-28T01:32:01;1.67;;;1.53;;
5456;SDS011;2751;49.802;9.944;2023-02-28T01:34:28;3.57;;;3.37;;
5456;SDS011;2751;49.802;9.944;2023-02-28T01:36:55;4.50;;;2.50;;
5456;SDS011;2751;49.802;9.944;2023-02-28T01:39:23;3.87;;;3.27;;
5456;SDS011;2751;49.802;9.944;2023-02-28T01:41:50;2.27;;;2.07;;
5456;SDS011;2751;49.802;9.944;2023-02-28T01:47:23;2.93;;;2.73;;
5456;SDS011;2751;49.802;9.944;2023-02-28T01:49:53;2.00;;;1.63;;
5456;SDS011;2751;49.802;9.944;2023-02-28T01:52:20;2.17;;;1.87;;
5456;SDS011;2751;49.802;9.944;2023-02-28T01:54:50;3.50;;;3.23;;
5456;SDS011;2751;49.802;9.944;2023-02-28T01:57:20;3.60;;;3.30;;
5456;SDS011;2751;49.802;9.944;2023-02-28T01:59:52;3.20;;;3.00;;
5456;SDS011;2751;49.802;9.944;2023-02-28T02:02:25;3.40;;;3.17;;
5456;SDS011;2751;49.802;9.944;2023-02-28T02:04:54;3.70;;;3.40;;
5456;SDS011;2751;49.802;9.944;2023-02-28T02:07:22;3.23;;;3.03;;
5456;SDS011;2751;49.802;9.944;2023-02-28T02:09:56;3.17;;;2.90;;
5456;SDS011;2751;49.802;9.944;2023-02-28T02:12:28;4.13;;;2.10;;
5456;SDS011;2751;49.802;9.944;2023-02-28T02:15:11;3.67;;;3.33;;
5456;SDS011;2751;49.802;9.944;2023-02-28T02:17:41;4.60;;;3.20;;
5456;SDS011;2751;49.802;9.944;2023-02-28T02:29:54;4.37;;;2.80;;
5456;SDS011;2751;49.802;9.944;2023-02-28T02:32:58;3.33;;;3.13;;
5456;SDS011;2751;49.802;9.944;2023-02-28T02:35:40;3.50;;;3.20;;
5456;SDS011;2751;49.802;9.944;2023-02-28T02:38:13;3.87;;;3.63;;
5456;SDS011;2751;49.802;9.944;2023-02-28T02:40:53;3.03;;;2.73;;
5456;SDS011;2751;49.802;9.944;2023-02-28T02:43:30;3.20;;;2.60;;
5456;SDS011;2751;49.802;9.944;2023-02-28T02:46:02;3.33;;;2.20;;
5456;SDS011;2751;49.802;9.944;2023-02-28T02:48:34;2.40;;;2.20;;
5456;SDS011;2751;49.802;9.944;2023-02-28T02:51:07;3.50;;;3.27;;
5456;SDS011;2751;49.802;9.944;2023-02-28T02:53:40;3.97;;;3.57;;
5456;SDS011;2751;49.802;9.944;2023-02-28T02:56:11;3.10;;;2.90;;
5456;SDS011;2751;49.802;9.944;2023-02-28T02:58:40;3.17;;;2.80;;
5456;SDS011;2751;49.802;9.944;2023-02-28T03:01:10;2.87;;;2.63;;
5456;SDS011;2751;49.802;9.944;2023-02-28T03:03:40;3.80;;;3.50;;
5456;SDS011;2751;49.802;9.944;2023-02-28T03:06:09;3.50;;;3.20;;
5456;SDS011;2751;49.802;9.944;2023-02-28T03:08:37;2.17;;;1.97;;
5456;SDS011;2751;49.802;9.944;2023-02-28T03:11:05;3.67;;;3.47;;
5456;SDS011;2751;49.802;9.944;2023-02-28T03:13:46;3.10;;;2.90;;
5456;SDS011;2751;49.802;9.944;2023-02-28T03:16:23;3.43;;;3.17;;
5456;SDS011;2751;49.802;9.944;2023-02-28T03:19:01;2.90;;;2.67;;
5456;SDS011;2751;49.802;9.944;2023-02-28T03:21:38;3.70;;;3.40;;
5456;SDS011;2751;49.802;9.944;2023-02-28T03:24:10;3.80;;;3.00;;
5456;SDS011;2751;49.802;9.944;2023-02-28T03:26:41;3.40;;;3.10;;
5456;SDS011;2751;49.802;9.944;2023-02-28T03:29:12;3.30;;;3.10;;
5456;SDS011;2751;49.802;9.944;2023-02-28T03:31:43;3.40;;;3.10;;
5456;SDS011;2751;49.802;9.944;2023-02-28T03:34:15;2.33;;;2.13;;
5456;SDS011;2751;49.802;9.944;2023-02-28T03:36:49;3.67;;;3.47;;
5456;SDS011;2751;49.802;9.944;2023-02-28T03:39:19;2.80;;;2.60;;
5456;SDS011;2751;49.802;9.944;2023-02-28T03:41:51;4.80;;;3.67;;
5456;SDS011;2751;49.802;9.944;2023-02-28T03:44:24;3.63;;;3.33;;
5456;SDS011;2751;49.802;9.944;2023-02-28T03:46:56;3.87;;;3.40;;
5456;SDS011;2751;49.802;9.944;2023-02-28T03:49:40;3.43;;;3.10;;
5456;SDS011;2751;49.802;9.944;2023-02-28T03:52:12;4.13;;;3.83;;
5456;SDS011;2751;49.802;9.944;2023-02-28T03:54:40;4.47;;;3.00;;
5456;SDS011;2751;49.802;9.944;2023-02-28T03:57:11;4.27;;;3.50;;
5456;SDS011;2751;49.802;9.944;2023-02-28T03:59:43;3.53;;;3.17;;
5456;SDS011;2751;49.802;9.944;2023-02-28T04:02:13;3.30;;;3.00;;
5456;SDS011;2751;49.802;9.944;2023-02-28T04:04:40;4.70;;;4.30;;
5456;SDS011;2751;49.802;9.944;2023-02-28T04:07:10;3.40;;;3.20;;
5456;SDS011;2751;49.802;9.944;2023-02-28T04:09:39;3.53;;;3.23;;
5456;SDS011;2751;49.802;9.944;2023-02-28T04:12:06;4.77;;;3.73;;
5456;SDS011;2751;49.802;9.944;2023-02-28T04:14:33;3.50;;;3.20;;
5456;SDS011;2751;49.802;9.944;2023-02-28T04:17:00;5.43;;;3.40;;
5456;SDS011;2751;49.802;9.944;2023-02-28T04:19:27;2.77;;;2.10;;
5456;SDS011;2751;49.802;9.944;2023-02-28T04:21:53;6.93;;;3.33;;
5456;SDS011;2751;49.802;9.944;2023-02-28T04:24:23;3.87;;;3.57;;
5456;SDS011;2751;49.802;9.944;2023-02-28T04:26:51;3.43;;;3.17;;
5456;SDS011;2751;49.802;9.944;2023-02-28T04:29:20;3.07;;;2.87;;
5456;SDS011;2751;49.802;9.944;2023-02-28T04:31:48;3.90;;;3.60;;
5456;SDS011;2751;49.802;9.944;2023-02-28T04:34:16;4.00;;;3.70;;
5456;SDS011;2751;49.802;9.944;2023-02-28T04:36:44;3.40;;;3.20;;
5456;SDS011;2751;49.802;9.944;2023-02-28T04:39:14;4.20;;;3.90;;
5456;SDS011;2751;49.802;9.944;2023-02-28T04:41:43;5.40;;;4.00;;
5456;SDS011;2751;49.802;9.944;2023-02-28T04:44:10;4.30;;;3.90;;
5456;SDS011;2751;49.802;9.944;2023-02-28T04:46:37;3.83;;;3.43;;
5456;SDS011;2751;49.802;9.944;2023-02-28T04:49:04;3.87;;;3.57;;
5456;SDS011;2751;49.802;9.944;2023-02-28T04:51:31;3.37;;;2.73;;
5456;SDS011;2751;49.802;9.944;2023-02-28T04:53:57;3.93;;;3.60;;
5456;SDS011;2751;49.802;9.944;2023-02-28T04:56:24;3.83;;;3.53;;
5456;SDS011;2751;49.802;9.944;2023-02-28T04:58:52;3.47;;;2.80;;
5456;SDS011;2751;49.802;9.944;2023-02-28T05:01:21;3.90;;;3.60;;
5456;SDS011;2751;49.802;9.944;2023-02-28T05:03:50;3.17;;;2.93;;
5456;SDS011;2751;49.802;9.944;2023-02-28T05:06:18;3.37;;;3.17;;
5456;SDS011;2751;49.802;9.944;2023-02-28T05:08:46;3.70;;;3.40;;
5456;SDS011;2751;49.802;9.944;2023-02-28T05:11:14;3.73;;;3.43;;
5456;SDS011;2751;49.802;9.944;2023-02-28T05:13:43;3.53;;;3.20;;
5456;SDS011;2751;49.802;9.944;2023-02-28T05:16:12;3.83;;;3.53;;
5456;SDS011;2751;49.802;9.944;2023-02-28T05:18:39;3.20;;;2.90;;
5456;SDS011;2751;49.802;9.944;2023-02-28T05:21:12;3.47;;;3.17;;
5456;SDS011;2751;49.802;9.944;2023-02-28T05:23:52;3.60;;;3.30;;
5456;SDS011;2751;49.802;9.944;2023-02-28T05:26:20;3.30;;;3.00;;
5456;SDS011;2751;49.802;9.944;2023-02-28T05:28:47;3.03;;;2.73;;
5456;SDS011;2751;49.802;9.944;2023-02-28T05:31:15;3.00;;;2.80;;
5456;SDS011;2751;49.802;9.944;2023-02-28T05:33:42;3.27;;;3.07;;
5456;SDS011;2751;49.802;9.944;2023-02-28T05:36:09;3.33;;;3.03;;
5456;SDS011;2751;49.802;9.944;2023-02-28T05:38:35;2.97;;;2.77;;
5456;SDS011;2751;49.802;9.944;2023-02-28T05:41:04;3.57;;;2.87;;
5456;SDS011;2751;49.802;9.944;2023-02-28T05:43:32;3.50;;;3.20;;
5456;SDS011;2751;49.802;9.944;2023-02-28T05:46:01;3.17;;;2.87;;
5456;SDS011;2751;49.802;9.944;2023-02-28T05:48:30;3.47;;;2.87;;
5456;SDS011;2751;49.802;9.944;2023-02-28T05:50:58;3.07;;;2.87;;
5456;SDS011;2751;49.802;9.944;2023-02-28T05:53:25;3.93;;;3.67;;
5456;SDS011;2751;49.802;9.944;2023-02-28T05:55:52;3.30;;;3.00;;
5456;SDS011;2751;49.802;9.944;2023-02-28T05:58:19;3.90;;;2.60;;
5456;SDS011;2751;49.802;9.944;2023-02-28T06:00:46;3.20;;;3.00;;
5456;SDS011;2751;49.802;9.944;2023-02-28T06:03:13;3.33;;;3.03;;
5456;SDS011;2751;49.802;9.944;2023-02-28T06:05:41;2.93;;;2.63;;
5456;SDS011;2751;49.802;9.944;2023-02-28T06:08:08;5.70;;;2.80;;
5456;SDS011;2751;49.802;9.944;2023-02-28T06:10:35;3.20;;;2.90;;
5456;SDS011;2751;49.802;9.944;2023-02-28T06:13:03;2.90;;;2.70;;
5456;SDS011;2751;49.802;9.944;2023-02-28T06:15:30;2.80;;;2.57;;
5456;SDS011;2751;49.802;9.944;2023-02-28T06:17:58;2.50;;;2.40;;
5456;SDS011;2751;49.802;9.944;2023-02-28T06:20:26;3.43;;;3.10;;
5456;SDS011;2751;49.802;9.944;2023-02-28T06:22:55;2.77;;;2.57;;
5456;SDS011;2751;49.802;9.944;2023-02-28T06:25:23;3.40;;;3.20;;
5456;SDS011;2751;49.802;9.944;2023-02-28T06:27:50;2.80;;;2.30;;
5456;SDS011;2751;49.802;9.944;2023-02-28T06:30:18;2.67;;;2.47;;
5456;SDS011;2751;49.802;9.944;2023-02-28T06:32:51;3.03;;;2.83;;
5456;SDS011;2751;49.802;9.944;2023-02-28T06:35:18;4.80;;;2.60;;
5456;SDS011;2751;49.802;9.944;2023-02-28T06:37:46;3.53;;;3.33;;
5456;SDS011;2751;49.802;9.944;2023-02-28T06:40:14;4.93;;;2.87;;
5456;SDS011;2751;49.802;9.944;2023-02-28T06:42:41;2.77;;;2.50;;
5456;SDS011;2751;49.802;9.944;2023-02-28T06:45:09;2.60;;;2.40;;
5456;SDS011;2751;49.802;9.944;2023-02-28T06:47:36;2.50;;;2.30;;
5456;SDS011;2751;49.802;9.944;2023-02-28T06:50:04;3.93;;;2.87;;
5456;SDS011;2751;49.802;9.944;2023-02-28T06:52:32;2.70;;;2.50;;
5456;SDS011;2751;49.802;9.944;2023-02-28T06:55:01;3.90;;;2.40;;
5456;SDS011;2751;49.802;9.944;2023-02-28T06:57:30;2.60;;;2.40;;
5456;SDS011;2751;49.802;9.944;2023-02-28T06:59:58;3.80;;;2.70;;
5456;SDS011;2751;49.802;9.944;2023-02-28T07:02:25;2.37;;;2.13;;
5456;SDS011;2751;49.802;9.944;2023-02-28T07:04:52;2.83;;;2.70;;
5456;SDS011;2751;49.802;9.944;2023-02-28T07:07:19;2.13;;;1.97;;
5456;SDS011;2751;49.802;9.944;2023-02-28T07:09:45;3.27;;;3.03;;
5456;SDS011;2751;49.802;9.944;2023-02-28T07:12:12;3.80;;;2.73;;
5456;SDS011;2751;49.802;9.944;2023-02-28T07:14:41;4.33;;;2.90;;
5456;SDS011;2751;49.802;9.944;2023-02-28T07:17:08;2.77;;;2.50;;
5456;SDS011;2751;49.802;9.944;2023-02-28T07:19:37;4.30;;;2.53;;
5456;SDS011;2751;49.802;9.944;2023-02-28T07:22:04;4.17;;;2.60;;
5456;SDS011;2751;49.802;9.944;2023-02-28T07:24:31;2.97;;;2.77;;
5456;SDS011;2751;49.802;9.944;2023-02-28T07:26:57;4.13;;;2.30;;
5456;SDS011;2751;49.802;9.944;2023-02-28T07:29:26;2.53;;;2.20;;
5456;SDS011;2751;49.802;9.944;2023-02-28T07:31:54;3.03;;;2.73;;
5456;SDS011;2751;49.802;9.944;2023-02-28T07:34:21;3.27;;;3.00;;
5456;SDS011;2751;49.802;9.944;2023-02-28T07:36:48;4.70;;;3.30;;
5456;SDS011;2751;49.802;9.944;2023-02-28T07:39:18;2.37;;;2.17;;
5456;SDS011;2751;49.802;9.944;2023-02-28T07:41:45;4.67;;;3.40;;
5456;SDS011;2751;49.802;9.944;2023-02-28T07:44:12;3.43;;;2.60;;
5456;SDS011;2751;49.802;9.944;2023-02-28T07:46:39;2.90;;;2.70;;
5456;SDS011;2751;49.802;9.944;2023-02-28T07:49:07;3.70;;;3.40;;
5456;SDS011;2751;49.802;9.944;2023-02-28T07:51:34;3.90;;;3.47;;
5456;SDS011;2751;49.802;9.944;2023-02-28T07:54:01;4.10;;;3.70;;
5456;SDS011;2751;49.802;9.944;2023-02-28T07:56:28;3.67;;;3.30;;
5456;SDS011;2751;49.802;9.944;2023-02-28T07:58:55;3.97;;;3.60;;
5456;SDS011;2751;49.802;9.944;2023-02-28T08:01:22;6.00;;;3.93;;
5456;SDS011;2751;49.802;9.944;2023-02-28T08:03:48;5.77;;;3.97;;
5456;SDS011;2751;49.802;9.944;2023-02-28T08:06:17;5.70;;;4.13;;
5456;SDS011;2751;49.802;9.944;2023-02-28T08:08:46;5.00;;;4.10;;
5456;SDS011;2751;49.802;9.944;2023-02-28T08:11:13;5.23;;;4.57;;
5456;SDS011;2751;49.802;9.944;2023-02-28T08:13:41;4.20;;;3.80;;
5456;SDS011;2751;49.802;9.944;2023-02-28T08:16:09;3.87;;;3.40;;
5456;SDS011;2751;49.802;9.944;2023-02-28T08:18:36;4.10;;;3.37;;
5456;SDS011;2751;49.802;9.944;2023-02-28T08:21:06;5.73;;;4.43;;
5456;SDS011;2751;49.802;9.944;2023-02-28T08:23:35;6.47;;;4.80;;
5456;SDS011;2751;49.802;9.944;2023-02-28T08:26:03;5.53;;;5.03;;
5456;SDS011;2751;49.802;9.944;2023-02-28T08:28:30;4.47;;;3.97;;
5456;SDS011;2751;49.802;9.944;2023-02-28T08:30:58;6.50;;;4.80;;
5456;SDS011;2751;49.802;9.944;2023-02-28T08:33:25;5.67;;;5.10;;
5456;SDS011;2751;49.802;9.944;2023-02-28T08:35:53;4.60;;;4.20;;
5456;SDS011;2751;49.802;9.944;2023-02-28T08:38:20;5.43;;;4.50;;
5456;SDS011;2751;49.802;9.944;2023-02-28T08:40:49;9.53;;;4.60;;
5456;SDS011;2751;49.802;9.944;2023-02-28T08:43:16;9.13;;;4.73;;
5456;SDS011;2751;49.802;9.944;2023-02-28T08:45:43;9.93;;;6.00;;
5456;SDS011;2751;49.802;9.944;2023-02-28T08:48:09;5.43;;;4.93;;
5456;SDS011;2751;49.802;9.944;2023-02-28T08:50:36;5.20;;;4.70;;
5456;SDS011;2751;49.802;9.944;2023-02-28T08:53:03;4.73;;;4.33;;
5456;SDS011;2751;49.802;9.944;2023-02-28T08:55:30;7.20;;;5.37;;
5456;SDS011;2751;49.802;9.944;2023-02-28T08:57:58;6.67;;;5.30;;
5456;SDS011;2751;49.802;9.944;2023-02-28T09:00:27;6.20;;;5.70;;
5456;SDS011;2751;49.802;9.944;2023-02-28T09:02:55;5.53;;;5.03;;
5456;SDS011;2751;49.802;9.944;2023-02-28T09:05:23;9.60;;;6.30;;
5456;SDS011;2751;49.802;9.944;2023-02-28T09:07:50;7.60;;;6.53;;
5456;SDS011;2751;49.802;9.944;2023-02-28T09:10:17;5.30;;;4.70;;
5456;SDS011;2751;49.802;9.944;2023-02-28T09:12:44;8.07;;;5.73;;
5456;SDS011;2751;49.802;9.944;2023-02-28T09:15:13;6.43;;;5.30;;
5456;SDS011;2751;49.802;9.944;2023-02-28T09:17:40;6.43;;;5.93;;
5456;SDS011;2751;49.802;9.944;2023-02-28T09:20:07;6.53;;;5.77;;
5456;SDS011;2751;49.802;9.944;2023-02-28T09:22:35;5.10;;;4.70;;
5456;SDS011;2751;49.802;9.944;2023-02-28T09:25:02;5.50;;;5.00;;
5456;SDS011;2751;49.802;9.944;2023-02-28T09:27:29;4.57;;;4.17;;
5456;SDS011;2751;49.802;9.944;2023-02-28T09:29:56;8.03;;;5.60;;
5456;SDS011;2751;49.802;9.944;2023-02-28T09:32:24;4.73;;;4.17;;
5456;SDS011;2751;49.802;9.944;2023-02-28T09:34:51;5.77;;;5.27;;
5456;SDS011;2751;49.802;9.944;2023-02-28T09:37:18;6.30;;;5.70;;
5456;SDS011;2751;49.802;9.944;2023-02-28T09:39:45;5.80;;;5.20;;
5456;SDS011;2751;49.802;9.944;2023-02-28T09:42:14;5.93;;;5.43;;
5456;SDS011;2751;49.802;9.944;2023-02-28T09:44:58;7.43;;;5.70;;
5456;SDS011;2751;49.802;9.944;2023-02-28T09:47:29;5.70;;;4.47;;
5456;SDS011;2751;49.802;9.944;2023-02-28T09:50:00;5.13;;;4.63;;
5456;SDS011;2751;49.802;9.944;2023-02-28T09:52:33;6.37;;;5.50;;
5456;SDS011;2751;49.802;9.944;2023-02-28T09:55:00;6.03;;;5.60;;
5456;SDS011;2751;49.802;9.944;2023-02-28T09:57:41;6.80;;;5.10;;
5456;SDS011;2751;49.802;9.944;2023-02-28T10:00:12;13.33;;;5.30;;
5456;SDS011;2751;49.802;9.944;2023-02-28T10:05:41;6.23;;;5.30;;
5456;SDS011;2751;49.802;9.944;2023-02-28T10:08:15;6.00;;;5.50;;
5456;SDS011;2751;49.802;9.944;2023-02-28T10:10:47;6.60;;;4.57;;
5456;SDS011;2751;49.802;9.944;2023-02-28T10:13:20;5.43;;;4.83;;
5456;SDS011;2751;49.802;9.944;2023-02-28T10:15:51;9.77;;;5.90;;
5456;SDS011;2751;49.802;9.944;2023-02-28T10:18:23;5.30;;;4.90;;
5456;SDS011;2751;49.802;9.944;2023-02-28T10:20:53;6.33;;;5.20;;
5456;SDS011;2751;49.802;9.944;2023-02-28T10:23:23;5.60;;;5.10;;
5456;SDS011;2751;49.802;9.944;2023-02-28T10:25:53;6.87;;;6.20;;
5456;SDS011;2751;49.802;9.944;2023-02-28T10:28:24;6.00;;;5.40;;
5456;SDS011;2751;49.802;9.944;2023-02-28T10:30:52;5.93;;;4.90;;
5456;SDS011;2751;49.802;9.944;2023-02-28T10:33:23;7.10;;;5.57;;
5456;SDS011;2751;49.802;9.944;2023-02-28T10:35:52;6.77;;;5.30;;
5456;SDS011;2751;49.802;9.944;2023-02-28T10:38:20;4.87;;;4.20;;
5456;SDS011;2751;49.802;9.944;2023-02-28T10:40:50;6.37;;;5.77;;
5456;SDS011;2751;49.802;9.944;2023-02-28T10:43:18;6.40;;;5.57;;
5456;SDS011;2751;49.802;9.944;2023-02-28T10:45:52;6.23;;;5.50;;
5456;SDS011;2751;49.802;9.944;2023-02-28T10:48:37;6.93;;;5.10;;
5456;SDS011;2751;49.802;9.944;2023-02-28T10:51:08;6.23;;;5.73;;
5456;SDS011;2751;49.802;9.944;2023-02-28T10:53:38;6.23;;;5.47;;
5456;SDS011;2751;49.802;9.944;2023-02-28T10:56:15;5.77;;;5.27;;
5456;SDS011;2751;49.802;9.944;2023-02-28T10:58:51;5.80;;;5.30;;
5456;SDS011;2751;49.802;9.944;2023-02-28T11:01:20;6.10;;;5.40;;
5456;SDS011;2751;49.802;9.944;2023-02-28T11:03:51;7.40;;;6.03;;
5456;SDS011;2751;49.802;9.944;2023-02-28T11:06:19;4.87;;;4.37;;
5456;SDS011;2751;49.802;9.944;2023-02-28T11:08:49;7.23;;;6.10;;
5456;SDS011;2751;49.802;9.944;2023-02-28T11:11:18;8.30;;;6.40;;
5456;SDS011;2751;49.802;9.944;2023-02-28T11:13:46;6.47;;;5.93;;
5456;SDS011;2751;49.802;9.944;2023-02-28T11:16:16;8.43;;;5.47;;
5456;SDS011;2751;49.802;9.944;2023-02-28T11:18:44;8.27;;;5.93;;
5456;SDS011;2751;49.802;9.944;2023-02-28T11:21:17;6.30;;;5.20;;
5456;SDS011;2751;49.802;9.944;2023-02-28T11:23:48;6.97;;;6.37;;
5456;SDS011;2751;49.802;9.944;2023-02-28T11:29:08;7.33;;;6.53;;
5456;SDS011;2751;49.802;9.944;2023-02-28T11:31:38;6.23;;;5.73;;
5456;SDS011;2751;49.802;9.944;2023-02-28T11:36:55;6.83;;;5.30;;
5456;SDS011;2751;49.802;9.944;2023-02-28T11:39:23;5.57;;;5.07;;
5456;SDS011;2751;49.802;9.944;2023-02-28T11:41:58;5.87;;;5.30;;
5456;SDS011;2751;49.802;9.944;2023-02-28T11:44:52;6.13;;;5.60;;
5456;SDS011;2751;49.802;9.944;2023-02-28T11:47:36;5.70;;;5.20;;
5456;SDS011;2751;49.802;9.944;2023-02-28T11:50:21;7.00;;;6.30;;
5456;SDS011;2751;49.802;9.944;2023-02-28T11:53:05;7.17;;;4.07;;
5456;SDS011;2751;49.802;9.944;2023-02-28T11:55:41;5.53;;;5.03;;
5456;SDS011;2751;49.802;9.944;2023-02-28T11:58:16;6.40;;;5.90;;
5456;SDS011;2751;49.802;9.944;2023-02-28T12:00:58;6.33;;;5.70;;
5456;SDS011;2751;49.802;9.944;2023-02-28T12:03:35;6.77;;;4.97;;
5456;SDS011;2751;49.802;9.944;2023-02-28T12:06:13;6.40;;;5.80;;
5456;SDS011;2751;49.802;9.944;2023-02-28T12:08:55;5.67;;;5.07;;
5456;SDS011;2751;49.802;9.944;2023-02-28T12:11:31;5.80;;;5.30;;
5456;SDS011;2751;49.802;9.944;2023-02-28T12:14:25;5.17;;;4.73;;
5456;SDS011;2751;49.802;9.944;2023-02-28T12:17:07;7.37;;;5.33;;
5456;SDS011;2751;49.802;9.944;2023-02-28T12:19:43;5.10;;;4.20;;
5456;SDS011;2751;49.802;9.944;2023-02-28T12:22:28;6.07;;;4.47;;
5456;SDS011;2751;49.802;9.944;2023-02-28T12:25:06;5.63;;;5.13;;
5456;SDS011;2751;49.802;9.944;2023-02-28T12:27:50;6.43;;;5.80;;
5456;SDS011;2751;49.802;9.944;2023-02-28T12:30:19;6.00;;;5.27;;
5456;SDS011;2751;49.802;9.944;2023-02-28T12:32:51;6.17;;;5.57;;
5456;SDS011;2751;49.802;9.944;2023-02-28T12:35:22;6.33;;;5.83;;
5456;SDS011;2751;49.802;9.944;2023-02-28T12:37:54;6.13;;;5.43;;
5456;SDS011;2751;49.802;9.944;2023-02-28T12:40:27;10.67;;;6.50;;
5456;SDS011;2751;49.802;9.944;2023-02-28T12:43:08;6.90;;;6.30;;
5456;SDS011;2751;49.802;9.944;2023-02-28T12:45:40;6.03;;;5.43;;
5456;SDS011;2751;49.802;9.944;2023-02-28T12:48:10;9.50;;;5.70;;
5456;SDS011;2751;49.802;9.944;2023-02-28T12:50:41;5.67;;;4.67;;
5456;SDS011;2751;49.802;9.944;2023-02-28T12:53:09;5.77;;;5.27;;
5456;SDS011;2751;49.802;9.944;2023-02-28T12:55:48;10.63;;;5.93;;
5456;SDS011;2751;49.802;9.944;2023-02-28T12:58:20;6.40;;;5.67;;
5456;SDS011;2751;49.802;9.944;2023-02-28T13:01:06;7.27;;;6.10;;
5456;SDS011;2751;49.802;9.944;2023-02-28T13:03:57;6.20;;;5.43;;
5456;SDS011;2751;49.802;9.944;2023-02-28T13:06:59;6.37;;;5.87;;
5456;SDS011;2751;49.802;9.944;2023-02-28T13:09:51;7.33;;;5.60;;
5456;SDS011;2751;49.802;9.944;2023-02-28T13:12:20;5.20;;;4.70;;
5456;SDS011;2751;49.802;9.944;2023-02-28T13:14:48;7.00;;;6.10;;
5456;SDS011;2751;49.802;9.944;2023-02-28T13:17:17;7.50;;;6.10;;
5456;SDS011;2751;49.802;9.944;2023-02-28T13:19:46;6.23;;;5.63;;
5456;SDS011;2751;49.802;9.944;2023-02-28T13:22:36;6.83;;;5.87;;
5456;SDS011;2751;49.802;9.944;2023-02-28T13:34:33;7.03;;;5.63;;
5456;SDS011;2751;49.802;9.944;2023-02-28T13:42:55;5.40;;;4.90;;
5456;SDS011;2751;49.802;9.944;2023-02-28T13:45:24;7.10;;;6.40;;
5456;SDS011;2751;49.802;9.944;2023-02-28T13:47:53;7.50;;;6.17;;
5456;SDS011;2751;49.802;9.944;2023-02-28T13:50:27;6.63;;;6.03;;
5456;SDS011;2751;49.802;9.944;2023-02-28T13:56:09;7.23;;;5.67;;
5456;SDS011;2751;49.802;9.944;2023-02-28T13:58:50;7.10;;;5.80;;
5456;SDS011;2751;49.802;9.944;2023-02-28T14:01:25;7.67;;;6.30;;
5456;SDS011;2751;49.802;9.944;2023-02-28T14:04:17;7.00;;;5.90;;
5456;SDS011;2751;49.802;9.944;2023-02-28T14:07:05;7.00;;;6.30;;
5456;SDS011;2751;49.802;9.944;2023-02-28T14:09:34;5.13;;;4.37;;
5456;SDS011;2751;49.802;9.944;2023-02-28T14:17:54;7.60;;;5.13;;
5456;SDS011;2751;49.802;9.944;2023-02-28T14:20:25;6.40;;;5.70;;
5456;SDS011;2751;49.802;9.944;2023-02-28T14:22:57;7.77;;;6.20;;
5456;SDS011;2751;49.802;9.944;2023-02-28T14:25:31;8.20;;;6.73;;
5456;SDS011;2751;49.802;9.944;2023-02-28T14:28:09;6.33;;;5.50;;
5456;SDS011;2751;49.802;9.944;2023-02-28T14:30:49;6.30;;;5.63;;
5456;SDS011;2751;49.802;9.944;2023-02-28T14:33:30;7.07;;;6.33;;
5456;SDS011;2751;49.802;9.944;2023-02-28T14:36:07;9.70;;;4.60;;
5456;SDS011;2751;49.802;9.944;2023-02-28T14:38:40;6.20;;;5.60;;
5456;SDS011;2751;49.802;9.944;2023-02-28T14:41:15;6.10;;;5.50;;
5456;SDS011;2751;49.802;9.944;2023-02-28T14:43:53;6.23;;;5.50;;
5456;SDS011;2751;49.802;9.944;2023-02-28T14:46:22;6.90;;;6.30;;
5456;SDS011;2751;49.802;9.944;2023-02-28T14:48:54;6.50;;;5.87;;
5456;SDS011;2751;49.802;9.944;2023-02-28T14:51:22;6.00;;;5.50;;
5456;SDS011;2751;49.802;9.944;2023-02-28T14:53:50;6.20;;;5.60;;
5456;SDS011;2751;49.802;9.944;2023-02-28T14:56:23;6.60;;;5.90;;
5456;SDS011;2751;49.802;9.944;2023-02-28T14:58:53;6.50;;;5.90;;
5456;SDS011;2751;49.802;9.944;2023-02-28T15:01:22;8.87;;;6.80;;
5456;SDS011;2751;49.802;9.944;2023-02-28T15:03:59;5.67;;;4.90;;
5456;SDS011;2751;49.802;9.944;2023-02-28T15:06:29;5.33;;;4.70;;
5456;SDS011;2751;49.802;9.944;2023-02-28T15:09:09;7.47;;;5.90;;
5456;SDS011;2751;49.802;9.944;2023-02-28T15:11:40;6.57;;;5.80;;
5456;SDS011;2751;49.802;9.944;2023-02-28T15:14:12;8.93;;;5.70;;
5456;SDS011;2751;49.802;9.944;2023-02-28T15:16:43;6.67;;;6.07;;
5456;SDS011;2751;49.802;9.944;2023-02-28T15:19:14;5.90;;;4.80;;
5456;SDS011;2751;49.802;9.944;2023-02-28T15:21:45;6.10;;;4.77;;
5456;SDS011;2751;49.802;9.944;2023-02-28T15:24:17;5.80;;;5.20;;
5456;SDS011;2751;49.802;9.944;2023-02-28T15:26:50;6.60;;;5.10;;
5456;SDS011;2751;49.802;9.944;2023-02-28T15:29:21;5.80;;;5.20;;
5456;SDS011;2751;49.802;9.944;2023-02-28T15:31:50;6.30;;;5.40;;
5456;SDS011;2751;49.802;9.944;2023-02-28T15:34:26;7.93;;;5.77;;
5456;SDS011;2751;49.802;9.944;2023-02-28T15:36:59;8.43;;;5.20;;
5456;SDS011;2751;49.802;9.944;2023-02-28T15:39:26;5.50;;;5.00;;
5456;SDS011;2751;49.802;9.944;2023-02-28T15:42:09;9.50;;;5.57;;
5456;SDS011;2751;49.802;9.944;2023-02-28T15:44:37;5.93;;;4.47;;
5456;SDS011;2751;49.802;9.944;2023-02-28T15:47:05;5.07;;;4.57;;
5456;SDS011;2751;49.802;9.944;2023-02-28T15:49:37;6.03;;;4.53;;
5456;SDS011;2751;49.802;9.944;2023-02-28T15:52:09;6.73;;;4.97;;
5456;SDS011;2751;49.802;9.944;2023-02-28T15:54:41;5.27;;;4.77;;
5456;SDS011;2751;49.802;9.944;2023-02-28T15:57:11;7.13;;;5.50;;
5456;SDS011;2751;49.802;9.944;2023-02-28T15:59:42;6.03;;;5.30;;
5456;SDS011;2751;49.802;9.944;2023-02-28T16:02:16;5.90;;;5.30;;
5456;SDS011;2751;49.802;9.944;2023-02-28T16:04:57;6.30;;;4.80;;
5456;SDS011;2751;49.802;9.944;2023-02-28T16:07:26;5.10;;;4.57;;
5456;SDS011;2751;49.802;9.944;2023-02-28T16:09:53;8.00;;;5.40;;
5456;SDS011;2751;49.802;9.944;2023-02-28T16:12:20;7.90;;;5.90;;
5456;SDS011;2751;49.802;9.944;2023-02-28T16:14:51;7.23;;;5.47;;
5456;SDS011;2751;49.802;9.944;2023-02-28T16:17:20;5.97;;;5.37;;
5456;SDS011;2751;49.802;9.944;2023-02-28T16:19:49;5.90;;;5.30;;
5456;SDS011;2751;49.802;9.944;2023-02-28T16:22:17;5.57;;;5.17;;